createdAt,value
2023-04-16T00:00:49.529Z,9.88
2023-04-16T00:03:16.193Z,9.89
2023-04-16T00:05:42.727Z,9.90
2023-04-16T00:08:09.114Z,9.70
2023-04-16T00:10:35.492Z,9.64
2023-04-16T00:13:01.919Z,9.86
2023-04-16T00:15:28.311Z,9.81
2023-04-16T00:17:54.750Z,9.96
2023-04-16T00:20:21.099Z,10.25
2023-04-16T00:22:47.489Z,10.34
2023-04-16T00:25:13.894Z,10.26
2023-04-16T00:27:40.286Z,10.12
2023-04-16T00:30:06.687Z,10.28
2023-04-16T00:32:33.082Z,10.43
2023-04-16T00:34:59.409Z,10.27
2023-04-16T00:37:25.782Z,10.21
2023-04-16T00:39:52.169Z,10.06
2023-04-16T00:42:18.516Z,10.12
2023-04-16T00:44:44.893Z,10.16
2023-04-16T00:47:11.255Z,10.22
2023-04-16T00:49:37.593Z,10.20
2023-04-16T00:52:03.947Z,10.16
2023-04-16T00:54:30.290Z,10.23
2023-04-16T00:56:56.622Z,10.26
2023-04-16T00:59:23.008Z,10.32
2023-04-16T01:01:49.524Z,10.26
2023-04-16T01:04:16.168Z,10.21
2023-04-16T01:06:42.657Z,10.44
2023-04-16T01:09:09.134Z,10.54
2023-04-16T01:11:35.657Z,10.40
2023-04-16T01:14:02.041Z,10.32
2023-04-16T01:16:28.521Z,10.39
2023-04-16T01:18:54.887Z,10.42
2023-04-16T01:21:21.262Z,10.34
2023-04-16T01:23:47.603Z,10.32
2023-04-16T01:26:13.958Z,10.19
2023-04-16T01:28:40.345Z,10.17
2023-04-16T01:31:06.718Z,10.05
2023-04-16T01:33:33.127Z,10.10
2023-04-16T01:35:59.463Z,10.31
2023-04-16T01:38:25.813Z,10.30
2023-04-16T01:40:52.197Z,10.30
2023-04-16T01:43:18.549Z,10.19
2023-04-16T01:45:44.910Z,10.08
2023-04-16T01:48:11.246Z,9.99
2023-04-16T01:50:37.582Z,10.15
2023-04-16T01:53:03.968Z,10.23
2023-04-16T01:55:30.330Z,10.04
2023-04-16T01:57:56.696Z,10.02
2023-04-16T02:00:23.032Z,10.11
2023-04-16T02:02:50.585Z,10.12
2023-04-16T02:05:17.070Z,10.07
2023-04-16T02:07:43.419Z,10.10
2023-04-16T02:10:09.813Z,10.13
2023-04-16T02:12:36.201Z,10.21
2023-04-16T02:15:02.590Z,10.24
2023-04-16T02:17:29.000Z,10.26
2023-04-16T02:19:55.404Z,10.16
2023-04-16T02:22:21.761Z,10.16
2023-04-16T02:24:48.171Z,10.13
2023-04-16T02:27:14.570Z,10.33
2023-04-16T02:29:40.926Z,10.35
2023-04-16T02:32:07.392Z,10.34
2023-04-16T02:34:33.824Z,10.47
2023-04-16T02:37:00.159Z,10.87
2023-04-16T02:39:26.537Z,10.95
2023-04-16T02:41:52.910Z,11.04
2023-04-16T02:44:19.242Z,11.12
2023-04-16T02:46:45.629Z,11.02
2023-04-16T02:49:12.200Z,11.21
2023-04-16T02:51:38.611Z,11.22
2023-04-16T02:54:05.028Z,11.12
2023-04-16T02:56:31.391Z,11.15
2023-04-16T02:58:57.732Z,11.08
2023-04-16T03:01:24.142Z,10.90
2023-04-16T03:03:50.576Z,10.66
2023-04-16T03:06:16.977Z,10.47
2023-04-16T03:08:43.322Z,10.50
2023-04-16T03:11:09.662Z,10.38
2023-04-16T03:13:36.043Z,10.34
2023-04-16T03:16:02.424Z,10.22
2023-04-16T03:18:28.842Z,10.16
2023-04-16T03:20:55.194Z,10.22
2023-04-16T03:23:21.538Z,10.23
2023-04-16T03:25:47.961Z,10.18
2023-04-16T03:28:14.356Z,10.11
2023-04-16T03:30:40.715Z,10.24
2023-04-16T03:33:07.059Z,10.14
2023-04-16T03:35:33.399Z,10.02
2023-04-16T03:37:59.789Z,9.99
2023-04-16T03:40:26.152Z,9.96
2023-04-16T03:42:52.500Z,10.01
2023-04-16T03:45:18.885Z,10.04
2023-04-16T03:47:45.317Z,10.05
2023-04-16T03:50:11.757Z,10.19
2023-04-16T03:52:38.192Z,10.31
2023-04-16T03:55:04.600Z,10.36
2023-04-16T03:57:30.938Z,10.32
2023-04-16T03:59:57.275Z,10.42
2023-04-16T04:02:23.817Z,10.48
2023-04-16T04:04:50.357Z,10.39
2023-04-16T04:07:16.731Z,10.43
2023-04-16T04:09:43.103Z,10.37
2023-04-16T04:12:09.500Z,10.33
2023-04-16T04:14:35.904Z,10.41
2023-04-16T04:17:02.265Z,10.65
2023-04-16T04:19:28.609Z,10.64
2023-04-16T04:21:54.955Z,10.60
2023-04-16T04:24:21.340Z,10.62
2023-04-16T04:26:47.689Z,10.48
2023-04-16T04:29:14.081Z,10.34
2023-04-16T04:31:40.480Z,10.28
2023-04-16T04:34:06.885Z,10.38
2023-04-16T04:36:33.235Z,10.37
2023-04-16T04:38:59.577Z,10.36
2023-04-16T04:41:25.923Z,10.46
2023-04-16T04:43:52.249Z,10.40
2023-04-16T04:46:18.748Z,10.25
2023-04-16T04:48:45.180Z,10.21
2023-04-16T04:51:11.524Z,10.27
2023-04-16T04:53:37.909Z,10.57
2023-04-16T04:56:12.157Z,10.89
2023-04-16T04:58:39.373Z,10.95
2023-04-16T05:01:05.788Z,10.98
2023-04-16T05:03:32.272Z,10.90
2023-04-16T05:05:58.671Z,10.77
2023-04-16T05:08:24.998Z,10.71
2023-04-16T05:10:51.343Z,10.65
2023-04-16T05:13:17.686Z,10.65
2023-04-16T05:15:44.014Z,10.78
2023-04-16T05:18:10.404Z,10.94
2023-04-16T05:20:36.795Z,10.90
2023-04-16T05:23:03.176Z,10.70
2023-04-16T05:25:29.518Z,10.66
2023-04-16T05:27:55.898Z,10.62
2023-04-16T05:30:22.243Z,10.60
2023-04-16T05:32:48.643Z,10.60
2023-04-16T05:35:17.317Z,10.55
2023-04-16T05:37:44.068Z,10.57
2023-04-16T05:40:10.443Z,10.68
2023-04-16T05:42:36.784Z,10.68
2023-04-16T05:45:03.116Z,10.77
2023-04-16T05:47:29.512Z,10.91
2023-04-16T05:49:55.904Z,10.99
2023-04-16T05:52:22.313Z,11.09
2023-04-16T05:54:48.707Z,11.17
2023-04-16T05:57:15.093Z,11.23
2023-04-16T05:59:41.433Z,11.23
2023-04-16T06:02:07.811Z,11.26
2023-04-16T06:04:34.198Z,11.31
2023-04-16T06:07:00.541Z,11.35
2023-04-16T06:09:26.923Z,11.33
2023-04-16T06:11:53.317Z,11.34
2023-04-16T06:14:19.687Z,11.28
2023-04-16T06:16:46.090Z,11.24
2023-04-16T06:19:12.519Z,11.14
2023-04-16T06:21:38.881Z,11.22
2023-04-16T06:24:05.281Z,11.34
2023-04-16T06:26:31.703Z,11.33
2023-04-16T06:28:58.048Z,11.30
2023-04-16T06:31:24.481Z,11.31
2023-04-16T06:33:50.904Z,11.30
2023-04-16T06:36:17.266Z,11.34
2023-04-16T06:38:43.674Z,11.42
2023-04-16T06:41:10.062Z,11.49
2023-04-16T06:43:36.427Z,11.55
2023-04-16T06:46:02.818Z,11.61
2023-04-16T06:48:29.208Z,11.66
2023-04-16T06:50:55.706Z,11.70
2023-04-16T06:53:22.137Z,11.78
2023-04-16T06:55:48.551Z,11.78
2023-04-16T06:58:14.930Z,11.83
2023-04-16T07:00:41.380Z,11.89
2023-04-16T07:03:07.965Z,11.92
2023-04-16T07:05:34.496Z,11.95
2023-04-16T07:08:00.868Z,11.99
2023-04-16T07:10:27.257Z,12.06
2023-04-16T07:12:53.652Z,12.11
2023-04-16T07:15:20.075Z,12.16
2023-04-16T07:17:46.501Z,12.19
2023-04-16T07:20:12.877Z,12.22
2023-04-16T07:22:39.227Z,12.25
2023-04-16T07:25:05.611Z,12.38
2023-04-16T07:27:31.951Z,12.32
2023-04-16T07:29:58.309Z,12.29
2023-04-16T07:32:24.786Z,12.29
2023-04-16T07:34:51.297Z,12.28
2023-04-16T07:37:17.675Z,12.34
2023-04-16T07:39:44.043Z,12.47
2023-04-16T07:42:10.409Z,12.56
2023-04-16T07:44:36.800Z,12.66
2023-04-16T07:47:04.880Z,12.67
2023-04-16T07:49:31.984Z,12.59
2023-04-16T07:51:58.348Z,12.61
2023-04-16T07:54:24.744Z,12.63
2023-04-16T07:56:51.125Z,12.64
2023-04-16T07:59:22.537Z,12.68
2023-04-16T08:01:49.762Z,12.67
2023-04-16T08:04:16.397Z,12.77
2023-04-16T08:06:42.950Z,12.84
2023-04-16T08:09:09.496Z,12.94
2023-04-16T08:11:36.062Z,13.27
2023-04-16T08:14:02.411Z,13.43
2023-04-16T08:16:28.833Z,13.61
2023-04-16T08:18:55.219Z,13.60
2023-04-16T08:21:21.565Z,13.64
2023-04-16T08:23:47.912Z,13.72
2023-04-16T08:26:14.253Z,13.73
2023-04-16T08:28:40.590Z,13.79
2023-04-16T08:31:06.941Z,13.72
2023-04-16T08:33:33.325Z,13.62
2023-04-16T08:35:59.671Z,13.49
2023-04-16T08:38:26.076Z,13.61
2023-04-16T08:40:52.449Z,13.85
2023-04-16T08:43:18.794Z,13.86
2023-04-16T08:45:45.135Z,13.78
2023-04-16T08:48:11.522Z,13.73
2023-04-16T08:50:37.917Z,13.72
2023-04-16T08:53:04.283Z,13.86
2023-04-16T08:55:30.677Z,13.98
2023-04-16T08:57:57.065Z,13.94
2023-04-16T09:00:23.418Z,13.97
2023-04-16T09:02:50.174Z,13.98
2023-04-16T09:05:16.765Z,13.92
2023-04-16T09:07:43.212Z,13.88
2023-04-16T09:10:09.538Z,13.86
2023-04-16T09:12:35.882Z,13.80
2023-04-16T09:15:02.217Z,13.96
2023-04-16T09:17:28.580Z,14.01
2023-04-16T09:19:54.959Z,14.05
2023-04-16T09:22:21.352Z,13.99
2023-04-16T09:24:47.744Z,14.11
2023-04-16T09:27:14.088Z,13.99
2023-04-16T09:29:40.475Z,14.09
2023-04-16T09:32:06.992Z,14.20
2023-04-16T09:34:33.398Z,14.23
2023-04-16T09:36:59.831Z,13.94
2023-04-16T09:39:26.179Z,13.69
2023-04-16T09:41:52.511Z,13.68
2023-04-16T09:44:18.860Z,13.90
2023-04-16T09:46:45.247Z,14.03
2023-04-16T09:49:11.769Z,14.14
2023-04-16T09:51:38.277Z,14.14
2023-04-16T09:54:04.678Z,14.06
2023-04-16T09:56:31.059Z,14.08
2023-04-16T09:58:57.413Z,14.00
2023-04-16T10:01:23.835Z,13.91
2023-04-16T10:03:50.449Z,13.85
2023-04-16T10:06:16.931Z,13.85
2023-04-16T10:08:43.279Z,13.90
2023-04-16T10:11:09.619Z,14.14
2023-04-16T10:13:35.986Z,14.23
2023-04-16T10:16:02.325Z,14.20
2023-04-16T10:18:28.671Z,14.16
2023-04-16T10:20:55.020Z,14.13
2023-04-16T10:23:21.398Z,14.04
2023-04-16T10:25:47.755Z,14.07
2023-04-16T10:28:14.130Z,13.97
2023-04-16T10:30:40.567Z,13.84
2023-04-16T10:33:07.079Z,14.01
2023-04-16T10:35:33.531Z,14.14
2023-04-16T10:37:59.867Z,14.18
2023-04-16T10:40:26.244Z,14.05
2023-04-16T10:42:52.697Z,13.98
2023-04-16T10:45:19.039Z,13.75
2023-04-16T10:47:45.385Z,13.62
2023-04-16T10:50:11.769Z,13.60
2023-04-16T10:52:38.119Z,13.54
2023-04-16T10:55:04.512Z,13.52
2023-04-16T10:57:30.880Z,13.51
2023-04-16T10:59:57.283Z,13.57
2023-04-16T11:02:24.656Z,13.68
2023-04-16T11:04:52.933Z,13.82
2023-04-16T11:07:19.527Z,14.01
2023-04-16T11:09:45.966Z,14.31
2023-04-16T11:12:12.306Z,14.47
2023-04-16T11:14:38.700Z,14.45
2023-04-16T11:17:05.096Z,14.60
2023-04-16T11:19:31.459Z,14.82
2023-04-16T11:21:57.843Z,15.06
2023-04-16T11:24:26.209Z,15.30
2023-04-16T11:26:52.705Z,15.42
2023-04-16T11:29:19.047Z,15.43
2023-04-16T11:31:45.444Z,15.54
2023-04-16T11:34:11.861Z,15.63
2023-04-16T11:36:38.210Z,15.60
2023-04-16T11:39:04.551Z,15.83
2023-04-16T11:41:30.905Z,15.83
2023-04-16T11:43:57.243Z,15.98
2023-04-16T11:46:27.677Z,15.99
2023-04-16T11:48:54.255Z,15.70
2023-04-16T11:51:20.632Z,15.58
2023-04-16T11:53:46.990Z,15.26
2023-04-16T11:56:13.314Z,15.23
2023-04-16T11:58:43.357Z,15.26
2023-04-16T12:01:09.955Z,15.25
2023-04-16T12:03:36.618Z,15.13
2023-04-16T12:06:03.193Z,15.08
2023-04-16T12:08:29.546Z,15.10
2023-04-16T12:10:55.915Z,15.13
2023-04-16T12:13:22.315Z,15.15
2023-04-16T12:15:48.747Z,15.30
2023-04-16T12:18:15.121Z,15.39
2023-04-16T12:20:41.538Z,15.57
2023-04-16T12:23:07.912Z,15.71
2023-04-16T12:25:34.291Z,15.64
2023-04-16T12:28:00.756Z,15.52
2023-04-16T12:30:27.104Z,15.42
2023-04-16T12:32:53.534Z,15.29
2023-04-16T12:35:19.968Z,15.22
2023-04-16T12:37:46.382Z,15.11
2023-04-16T12:40:12.748Z,15.03
2023-04-16T12:42:39.233Z,15.02
2023-04-16T12:45:05.605Z,15.14
2023-04-16T12:47:32.069Z,15.31
2023-04-16T12:49:58.453Z,15.54
2023-04-16T12:52:24.855Z,15.80
2023-04-16T12:54:51.198Z,15.76
2023-04-16T12:57:17.532Z,15.86
2023-04-16T12:59:43.865Z,15.74
2023-04-16T13:02:10.352Z,15.83
2023-04-16T13:04:36.919Z,15.85
2023-04-16T13:07:03.313Z,15.83
2023-04-16T13:09:29.694Z,15.74
2023-04-16T13:11:56.078Z,15.88
2023-04-16T13:14:22.465Z,16.04
2023-04-16T13:16:48.853Z,16.16
2023-04-16T13:19:15.252Z,16.31
2023-04-16T13:21:41.610Z,16.47
2023-04-16T13:24:07.941Z,16.56
2023-04-16T13:26:34.280Z,16.64
2023-04-16T13:29:00.655Z,16.72
2023-04-16T13:31:27.172Z,16.77
2023-04-16T13:33:53.623Z,16.69
2023-04-16T13:36:20.041Z,16.72
2023-04-16T13:38:46.393Z,16.70
2023-04-16T13:41:12.774Z,16.77
2023-04-16T13:43:39.459Z,16.80
2023-04-16T13:46:05.894Z,16.86
2023-04-16T13:48:32.281Z,16.98
2023-04-16T13:50:58.940Z,16.73
2023-04-16T13:53:25.385Z,16.76
2023-04-16T13:55:51.789Z,16.71
2023-04-16T13:58:18.168Z,16.54
2023-04-16T14:00:44.581Z,16.34
2023-04-16T14:03:11.057Z,16.34
2023-04-16T14:05:37.524Z,16.37
2023-04-16T14:08:03.914Z,16.23
2023-04-16T14:10:30.568Z,16.04
2023-04-16T14:12:56.990Z,16.01
2023-04-16T14:15:23.329Z,16.04
2023-04-16T14:17:49.739Z,15.97
2023-04-16T14:20:16.376Z,15.81
2023-04-16T14:22:42.763Z,15.75
2023-04-16T14:25:09.182Z,15.71
2023-04-16T14:27:35.526Z,15.76
2023-04-16T14:30:01.877Z,15.86
2023-04-16T14:32:28.331Z,16.01
2023-04-16T14:34:54.893Z,16.00
2023-04-16T14:37:21.283Z,15.86
2023-04-16T14:39:47.725Z,15.81
2023-04-16T14:42:14.072Z,15.73
2023-04-16T14:44:40.412Z,15.49
2023-04-16T14:47:06.752Z,15.35
2023-04-16T14:49:33.140Z,15.26
2023-04-16T14:51:59.490Z,15.23
2023-04-16T14:54:25.825Z,15.25
2023-04-16T14:56:52.154Z,15.26
2023-04-16T14:59:18.711Z,15.36
2023-04-16T15:01:45.200Z,15.47
2023-04-16T15:04:11.770Z,15.59
2023-04-16T15:06:38.317Z,15.80
2023-04-16T15:09:04.788Z,16.03
2023-04-16T15:11:31.159Z,16.21
2023-04-16T15:13:57.558Z,16.36
2023-04-16T15:16:23.960Z,16.49
2023-04-16T15:18:50.389Z,16.33
2023-04-16T15:21:16.768Z,16.13
2023-04-16T15:23:43.169Z,15.86
2023-04-16T15:26:09.525Z,15.70
2023-04-16T15:28:35.871Z,15.58
2023-04-16T15:31:02.277Z,15.52
2023-04-16T15:33:28.712Z,15.50
2023-04-16T15:35:55.120Z,15.48
2023-04-16T15:38:21.541Z,15.47
2023-04-16T15:40:47.907Z,15.32
2023-04-16T15:43:14.340Z,15.31
2023-04-16T15:45:40.724Z,15.31
2023-04-16T15:48:07.136Z,15.29
2023-04-16T15:50:33.516Z,15.37
2023-04-16T15:52:59.842Z,15.27
2023-04-16T15:55:26.188Z,15.16
2023-04-16T15:57:52.564Z,14.90
2023-04-16T16:00:18.966Z,14.76
2023-04-16T16:02:45.510Z,14.57
2023-04-16T16:05:12.036Z,14.43
2023-04-16T16:07:38.398Z,14.40
2023-04-16T16:10:04.774Z,14.35
2023-04-16T16:12:31.165Z,14.36
2023-04-16T16:14:57.508Z,14.27
2023-04-16T16:17:23.952Z,14.22
2023-04-16T16:19:50.358Z,14.17
2023-04-16T16:22:16.747Z,14.12
2023-04-16T16:24:43.130Z,14.13
2023-04-16T16:27:09.515Z,14.23
2023-04-16T16:29:35.856Z,14.14
2023-04-16T16:32:02.315Z,13.90
2023-04-16T16:34:28.803Z,13.84
2023-04-16T16:36:55.194Z,13.82
2023-04-16T16:39:21.560Z,13.84
2023-04-16T16:41:47.900Z,13.77
2023-04-16T16:44:14.254Z,13.75
2023-04-16T16:46:40.617Z,13.76
2023-04-16T16:49:07.056Z,13.79
2023-04-16T16:51:33.400Z,13.61
2023-04-16T16:53:59.758Z,13.64
2023-04-16T16:56:26.134Z,13.39
2023-04-16T16:58:52.478Z,13.31
2023-04-16T17:01:18.840Z,13.39
2023-04-16T17:03:45.301Z,13.46
2023-04-16T17:06:11.735Z,13.40
2023-04-16T17:08:38.114Z,13.51
2023-04-16T17:11:04.524Z,13.45
2023-04-16T17:13:30.941Z,13.41
2023-04-16T17:15:57.294Z,13.38
2023-04-16T17:18:23.691Z,13.25
2023-04-16T17:20:50.122Z,13.22
2023-04-16T17:23:16.468Z,13.33
2023-04-16T17:25:42.845Z,13.47
2023-04-16T17:28:09.239Z,13.58
2023-04-16T17:30:35.594Z,13.62
2023-04-16T17:33:02.034Z,13.60
2023-04-16T17:35:28.435Z,13.67
2023-04-16T17:37:54.779Z,13.72
2023-04-16T17:40:21.225Z,13.82
2023-04-16T17:42:47.588Z,13.83
2023-04-16T17:45:13.933Z,13.88
2023-04-16T17:47:40.358Z,13.90
2023-04-16T17:50:06.755Z,13.90
2023-04-16T17:52:33.199Z,13.94
2023-04-16T17:54:59.628Z,13.90
2023-04-16T17:57:26.028Z,13.94
2023-04-16T17:59:52.471Z,14.00
2023-04-16T18:02:18.924Z,13.97
2023-04-16T18:04:45.598Z,13.86
2023-04-16T18:07:12.148Z,13.81
2023-04-16T18:09:38.560Z,13.78
2023-04-16T18:12:04.958Z,13.76
2023-04-16T18:14:31.347Z,13.69
2023-04-16T18:16:57.745Z,13.75
2023-04-16T18:19:24.134Z,13.84
2023-04-16T18:21:50.483Z,13.81
2023-04-16T18:24:16.835Z,13.82
2023-04-16T18:26:46.239Z,13.68
2023-04-16T18:29:13.787Z,13.67
2023-04-16T18:31:40.405Z,13.67
2023-04-16T18:34:06.882Z,13.46
2023-04-16T18:36:33.337Z,13.21
2023-04-16T18:39:02.389Z,13.13
2023-04-16T18:41:29.238Z,12.91
2023-04-16T18:43:55.731Z,13.04
2023-04-16T18:46:22.112Z,12.78
2023-04-16T18:48:48.473Z,12.80
2023-04-16T18:51:16.266Z,12.82
2023-04-16T18:53:43.122Z,12.79
2023-04-16T18:56:09.462Z,12.80
2023-04-16T18:58:35.807Z,12.83
2023-04-16T19:01:02.248Z,12.86
2023-04-16T19:03:28.786Z,12.89
2023-04-16T19:05:55.317Z,12.92
2023-04-16T19:08:21.700Z,12.94
2023-04-16T19:10:48.098Z,12.92
2023-04-16T19:13:14.430Z,12.77
2023-04-16T19:15:40.800Z,12.72
2023-04-16T19:18:07.136Z,12.70
2023-04-16T19:20:33.473Z,12.57
2023-04-16T19:22:59.805Z,12.34
2023-04-16T19:25:26.225Z,12.36
2023-04-16T19:27:52.591Z,12.29
2023-04-16T19:30:18.930Z,12.31
2023-04-16T19:32:45.300Z,12.35
2023-04-16T19:35:11.676Z,12.02
2023-04-16T19:37:38.024Z,12.12
2023-04-16T19:40:04.372Z,12.15
2023-04-16T19:42:30.749Z,12.23
2023-04-16T19:44:57.109Z,12.33
2023-04-16T19:47:23.438Z,12.35
2023-04-16T19:49:49.818Z,12.32
2023-04-16T19:52:16.154Z,12.27
2023-04-16T19:54:42.515Z,12.28
2023-04-16T19:57:08.850Z,12.35
2023-04-16T19:59:35.225Z,12.45
2023-04-16T20:02:01.727Z,12.52
2023-04-16T20:04:28.191Z,12.53
2023-04-16T20:06:54.605Z,12.58
2023-04-16T20:09:21.004Z,12.38
2023-04-16T20:11:47.385Z,12.25
2023-04-16T20:14:13.778Z,12.29
2023-04-16T20:16:40.220Z,12.29
2023-04-16T20:19:08.701Z,12.23
2023-04-16T20:21:35.535Z,12.33
2023-04-16T20:24:01.948Z,12.29
2023-04-16T20:26:28.394Z,12.24
2023-04-16T20:28:54.763Z,12.13
2023-04-16T20:31:21.164Z,12.14
2023-04-16T20:33:47.534Z,12.00
2023-04-16T20:36:13.926Z,11.64
2023-04-16T20:38:40.310Z,11.70
2023-04-16T20:41:06.669Z,11.80
2023-04-16T20:43:33.007Z,11.86
2023-04-16T20:45:59.366Z,11.88
2023-04-16T20:48:25.947Z,11.94
2023-04-16T20:50:52.392Z,11.98
2023-04-16T20:53:18.769Z,12.00
2023-04-16T20:55:45.113Z,12.00
2023-04-16T20:58:11.442Z,11.99
2023-04-16T21:00:37.778Z,11.82
2023-04-16T21:03:04.350Z,11.85
2023-04-16T21:05:30.838Z,11.88
2023-04-16T21:07:57.193Z,11.91
2023-04-16T21:10:23.529Z,11.91
2023-04-16T21:12:49.907Z,11.79
2023-04-16T21:15:16.302Z,11.66
2023-04-16T21:17:42.788Z,11.60
2023-04-16T21:20:09.221Z,11.63
2023-04-16T21:22:35.605Z,11.68
2023-04-16T21:25:01.991Z,11.60
2023-04-16T21:27:28.331Z,11.70
2023-04-16T21:29:54.714Z,11.78
2023-04-16T21:32:21.090Z,11.73
2023-04-16T21:34:47.480Z,11.69
2023-04-16T21:37:13.868Z,11.69
2023-04-16T21:39:40.253Z,11.72
2023-04-16T21:42:06.612Z,11.72
2023-04-16T21:44:32.987Z,11.80
2023-04-16T21:46:59.493Z,11.89
2023-04-16T21:49:25.927Z,11.93
2023-04-16T21:51:52.269Z,11.95
2023-04-16T21:54:18.641Z,11.90
2023-04-16T21:56:45.057Z,11.85
2023-04-16T21:59:11.612Z,11.81
2023-04-16T22:01:38.173Z,11.71
2023-04-16T22:04:04.544Z,11.67
2023-04-16T22:06:30.930Z,11.45
2023-04-16T22:08:57.262Z,11.30
2023-04-16T22:11:23.610Z,11.31
2023-04-16T22:13:49.995Z,11.18
2023-04-16T22:16:16.438Z,11.09
2023-04-16T22:18:42.867Z,10.94
2023-04-16T22:21:09.224Z,11.10
2023-04-16T22:23:35.577Z,11.16
2023-04-16T22:26:01.906Z,11.14
2023-04-16T22:28:28.244Z,11.19
2023-04-16T22:30:54.622Z,11.28
2023-04-16T22:33:20.997Z,11.41
2023-04-16T22:35:47.397Z,11.45
2023-04-16T22:38:13.734Z,11.41
2023-04-16T22:40:40.111Z,11.15
2023-04-16T22:43:06.510Z,11.01
2023-04-16T22:45:32.859Z,10.66
2023-04-16T22:47:59.284Z,10.63
2023-04-16T22:50:25.688Z,10.61
2023-04-16T22:52:52.077Z,10.48
2023-04-16T22:55:18.500Z,10.41
2023-04-16T22:57:44.916Z,10.48
2023-04-16T23:00:11.310Z,10.36
2023-04-16T23:02:37.750Z,10.36
2023-04-16T23:05:04.189Z,10.46
2023-04-16T23:07:30.529Z,10.61
2023-04-16T23:09:56.879Z,10.56
2023-04-16T23:12:23.217Z,10.44
2023-04-16T23:14:49.593Z,10.46
2023-04-16T23:17:15.988Z,10.37
2023-04-16T23:19:42.428Z,10.20
2023-04-16T23:22:08.816Z,10.15
2023-04-16T23:24:35.204Z,10.20
2023-04-16T23:27:01.589Z,10.25
2023-04-16T23:29:27.954Z,10.29
2023-04-16T23:31:54.378Z,10.24
2023-04-16T23:34:20.776Z,10.20
2023-04-16T23:36:47.147Z,10.09
2023-04-16T23:39:14.642Z,10.08
2023-04-16T23:41:40.978Z,10.05
2023-04-16T23:44:07.334Z,9.95
2023-04-16T23:46:33.686Z,10.02
2023-04-16T23:49:00.048Z,9.80
2023-04-16T23:51:26.375Z,9.74
2023-04-16T23:53:52.736Z,9.80
2023-04-16T23:56:19.117Z,9.72
2023-04-16T23:58:45.488Z,9.70
